sensor_id;sensor_type;location;lat;lon;timestamp;temperature;humidity
76345;DHT22;65160;50.504;3.666;2023-03-11T00:00:14;1.05;90.22
76345;DHT22;65160;50.504;3.666;2023-03-11T00:02:45;1.13;90.56
76345;DHT22;65160;50.504;3.666;2023-03-11T00:05:16;1.14;90.64
76345;DHT22;65160;50.504;3.666;2023-03-11T00:07:42;1.07;90.31
76345;DHT22;65160;50.504;3.666;2023-03-11T00:10:13;1.11;90.34
76345;DHT22;65160;50.504;3.666;2023-03-11T00:12:39;1.05;90.49
76345;DHT22;65160;50.504;3.666;2023-03-11T00:15:05;1.01;90.55
76345;DHT22;65160;50.504;3.666;2023-03-11T00:17:30;1.01;90.83
76345;DHT22;65160;50.504;3.666;2023-03-11T00:19:56;0.99;90.82
76345;DHT22;65160;50.504;3.666;2023-03-11T00:22:21;0.86;90.76
76345;DHT22;65160;50.504;3.666;2023-03-11T00:24:47;0.77;90.73
76345;DHT22;65160;50.504;3.666;2023-03-11T00:27:12;0.76;90.98
76345;DHT22;65160;50.504;3.666;2023-03-11T00:29:38;0.68;91.05
76345;DHT22;65160;50.504;3.666;2023-03-11T00:32:03;0.53;91.22
76345;DHT22;65160;50.504;3.666;2023-03-11T00:34:29;0.49;91.38
76345;DHT22;65160;50.504;3.666;2023-03-11T00:36:54;0.48;91.52
76345;DHT22;65160;50.504;3.666;2023-03-11T00:39:20;0.46;91.58
76345;DHT22;65160;50.504;3.666;2023-03-11T00:41:45;0.49;91.61
76345;DHT22;65160;50.504;3.666;2023-03-11T00:44:11;0.44;91.69
76345;DHT22;65160;50.504;3.666;2023-03-11T00:46:37;0.35;91.71
76345;DHT22;65160;50.504;3.666;2023-03-11T00:49:02;0.34;91.83
76345;DHT22;65160;50.504;3.666;2023-03-11T00:51:28;0.35;91.90
76345;DHT22;65160;50.504;3.666;2023-03-11T00:53:54;0.37;91.85
76345;DHT22;65160;50.504;3.666;2023-03-11T00:56:19;0.28;91.86
76345;DHT22;65160;50.504;3.666;2023-03-11T00:58:44;0.22;91.80
76345;DHT22;65160;50.504;3.666;2023-03-11T01:01:12;0.18;91.98
76345;DHT22;65160;50.504;3.666;2023-03-11T01:03:39;0.17;92.05
76345;DHT22;65160;50.504;3.666;2023-03-11T01:06:05;0.10;92.18
76345;DHT22;65160;50.504;3.666;2023-03-11T01:08:30;0.10;92.29
76345;DHT22;65160;50.504;3.666;2023-03-11T01:10:57;0.07;92.32
76345;DHT22;65160;50.504;3.666;2023-03-11T01:13:24;0.08;92.34
76345;DHT22;65160;50.504;3.666;2023-03-11T01:15:51;0.03;92.40
76345;DHT22;65160;50.504;3.666;2023-03-11T01:18:16;0.07;92.60
76345;DHT22;65160;50.504;3.666;2023-03-11T01:20:42;0.08;92.69
76345;DHT22;65160;50.504;3.666;2023-03-11T01:23:08;0.15;92.76
76345;DHT22;65160;50.504;3.666;2023-03-11T01:25:34;0.22;92.79
76345;DHT22;65160;50.504;3.666;2023-03-11T01:28:00;0.24;92.71
76345;DHT22;65160;50.504;3.666;2023-03-11T01:30:27;0.29;92.47
76345;DHT22;65160;50.504;3.666;2023-03-11T01:32:54;0.28;92.31
76345;DHT22;65160;50.504;3.666;2023-03-11T01:35:21;0.25;92.27
76345;DHT22;65160;50.504;3.666;2023-03-11T01:37:47;0.28;92.28
76345;DHT22;65160;50.504;3.666;2023-03-11T01:40:33;0.31;92.34
76345;DHT22;65160;50.504;3.666;2023-03-11T01:43:01;0.38;92.41
76345;DHT22;65160;50.504;3.666;2023-03-11T01:47:55;0.45;92.57
76345;DHT22;65160;50.504;3.666;2023-03-11T01:50:21;0.55;92.51
76345;DHT22;65160;50.504;3.666;2023-03-11T01:52:47;0.56;92.35
76345;DHT22;65160;50.504;3.666;2023-03-11T01:55:14;0.62;92.35
76345;DHT22;65160;50.504;3.666;2023-03-11T01:57:42;0.61;91.95
76345;DHT22;65160;50.504;3.666;2023-03-11T02:00:12;0.66;91.66
76345;DHT22;65160;50.504;3.666;2023-03-11T02:02:50;0.75;91.52
76345;DHT22;65160;50.504;3.666;2023-03-11T02:05:19;0.80;91.37
76345;DHT22;65160;50.504;3.666;2023-03-11T02:07:45;0.86;91.44
76345;DHT22;65160;50.504;3.666;2023-03-11T02:10:12;0.86;91.51
76345;DHT22;65160;50.504;3.666;2023-03-11T02:12:38;0.83;91.55
76345;DHT22;65160;50.504;3.666;2023-03-11T02:15:05;0.83;91.58
76345;DHT22;65160;50.504;3.666;2023-03-11T02:17:31;0.87;91.63
76345;DHT22;65160;50.504;3.666;2023-03-11T02:22:41;0.83;91.47
76345;DHT22;65160;50.504;3.666;2023-03-11T02:25:53;0.89;91.41
76345;DHT22;65160;50.504;3.666;2023-03-11T02:27:54;0.90;91.36
76345;DHT22;65160;50.504;3.666;2023-03-11T02:30:22;0.90;91.41
76345;DHT22;65160;50.504;3.666;2023-03-11T02:32:48;0.89;91.16
76345;DHT22;65160;50.504;3.666;2023-03-11T02:35:15;0.91;91.10
76345;DHT22;65160;50.504;3.666;2023-03-11T02:37:46;0.87;91.15
76345;DHT22;65160;50.504;3.666;2023-03-11T02:42:50;0.90;91.46
76345;DHT22;65160;50.504;3.666;2023-03-11T02:45:19;0.93;91.59
76345;DHT22;65160;50.504;3.666;2023-03-11T02:47:46;0.89;91.55
76345;DHT22;65160;50.504;3.666;2023-03-11T02:50:14;0.84;91.57
76345;DHT22;65160;50.504;3.666;2023-03-11T02:52:40;0.81;91.63
76345;DHT22;65160;50.504;3.666;2023-03-11T02:55:07;0.76;91.70
76345;DHT22;65160;50.504;3.666;2023-03-11T02:57:32;0.69;91.64
76345;DHT22;65160;50.504;3.666;2023-03-11T02:59:58;0.69;91.57
76345;DHT22;65160;50.504;3.666;2023-03-11T03:02:26;0.72;91.48
76345;DHT22;65160;50.504;3.666;2023-03-11T03:04:51;0.69;91.46
76345;DHT22;65160;50.504;3.666;2023-03-11T03:07:17;0.69;91.61
76345;DHT22;65160;50.504;3.666;2023-03-11T03:09:42;0.70;91.64
76345;DHT22;65160;50.504;3.666;2023-03-11T03:12:08;0.69;91.38
76345;DHT22;65160;50.504;3.666;2023-03-11T03:14:33;0.69;91.40
76345;DHT22;65160;50.504;3.666;2023-03-11T03:16:59;0.62;91.49
76345;DHT22;65160;50.504;3.666;2023-03-11T03:19:24;0.58;91.58
76345;DHT22;65160;50.504;3.666;2023-03-11T03:21:50;0.52;91.74
76345;DHT22;65160;50.504;3.666;2023-03-11T03:24:15;0.45;91.89
76345;DHT22;65160;50.504;3.666;2023-03-11T03:26:41;0.45;92.04
76345;DHT22;65160;50.504;3.666;2023-03-11T03:29:07;0.46;92.11
76345;DHT22;65160;50.504;3.666;2023-03-11T03:31:32;0.45;92.11
76345;DHT22;65160;50.504;3.666;2023-03-11T03:33:58;0.44;92.29
76345;DHT22;65160;50.504;3.666;2023-03-11T03:36:23;0.41;92.37
76345;DHT22;65160;50.504;3.666;2023-03-11T03:38:53;0.37;92.42
76345;DHT22;65160;50.504;3.666;2023-03-11T03:41:19;0.38;92.51
76345;DHT22;65160;50.504;3.666;2023-03-11T03:43:45;0.32;92.58
76345;DHT22;65160;50.504;3.666;2023-03-11T03:46:10;0.31;92.58
76345;DHT22;65160;50.504;3.666;2023-03-11T03:48:37;0.26;92.51
76345;DHT22;65160;50.504;3.666;2023-03-11T03:51:04;0.22;92.27
76345;DHT22;65160;50.504;3.666;2023-03-11T03:53:32;0.25;92.39
76345;DHT22;65160;50.504;3.666;2023-03-11T03:56:01;0.22;92.49
76345;DHT22;65160;50.504;3.666;2023-03-11T03:58:27;0.24;92.52
76345;DHT22;65160;50.504;3.666;2023-03-11T04:00:56;0.24;92.56
76345;DHT22;65160;50.504;3.666;2023-03-11T04:03:22;0.24;92.52
76345;DHT22;65160;50.504;3.666;2023-03-11T04:05:47;0.25;92.54
76345;DHT22;65160;50.504;3.666;2023-03-11T04:08:13;0.29;92.58
76345;DHT22;65160;50.504;3.666;2023-03-11T04:10:39;0.28;92.57
76345;DHT22;65160;50.504;3.666;2023-03-11T04:13:04;0.25;92.52
76345;DHT22;65160;50.504;3.666;2023-03-11T04:15:30;0.18;92.48
76345;DHT22;65160;50.504;3.666;2023-03-11T04:17:55;0.13;92.47
76345;DHT22;65160;50.504;3.666;2023-03-11T04:20:20;0.07;92.58
76345;DHT22;65160;50.504;3.666;2023-03-11T04:22:46;0.07;92.59
76345;DHT22;65160;50.504;3.666;2023-03-11T04:25:11;0.01;92.68
76345;DHT22;65160;50.504;3.666;2023-03-11T04:27:37;-0.07;92.62
76345;DHT22;65160;50.504;3.666;2023-03-11T04:30:07;-0.13;92.75
76345;DHT22;65160;50.504;3.666;2023-03-11T04:32:33;-0.20;92.89
76345;DHT22;65160;50.504;3.666;2023-03-11T04:34:58;-0.24;92.95
76345;DHT22;65160;50.504;3.666;2023-03-11T04:37:27;-0.24;92.99
76345;DHT22;65160;50.504;3.666;2023-03-11T04:39:53;-0.35;93.04
76345;DHT22;65160;50.504;3.666;2023-03-11T04:42:18;-0.37;93.14
76345;DHT22;65160;50.504;3.666;2023-03-11T04:44:44;-0.33;93.18
76345;DHT22;65160;50.504;3.666;2023-03-11T04:47:09;-0.38;93.17
76345;DHT22;65160;50.504;3.666;2023-03-11T04:49:35;-0.41;93.17
76345;DHT22;65160;50.504;3.666;2023-03-11T04:52:02;-0.41;93.28
76345;DHT22;65160;50.504;3.666;2023-03-11T04:54:28;-0.44;93.33
76345;DHT22;65160;50.504;3.666;2023-03-11T04:56:53;-0.50;93.34
76345;DHT22;65160;50.504;3.666;2023-03-11T04:59:19;-0.55;93.40
76345;DHT22;65160;50.504;3.666;2023-03-11T05:01:44;-0.57;93.43
76345;DHT22;65160;50.504;3.666;2023-03-11T05:04:10;-0.59;93.43
76345;DHT22;65160;50.504;3.666;2023-03-11T05:06:36;-0.58;93.45
76345;DHT22;65160;50.504;3.666;2023-03-11T05:09:02;-0.61;93.30
76345;DHT22;65160;50.504;3.666;2023-03-11T05:11:29;-0.70;93.26
76345;DHT22;65160;50.504;3.666;2023-03-11T05:13:54;-0.76;93.19
76345;DHT22;65160;50.504;3.666;2023-03-11T05:16:20;-0.76;93.26
76345;DHT22;65160;50.504;3.666;2023-03-11T05:18:45;-0.78;93.35
76345;DHT22;65160;50.504;3.666;2023-03-11T05:21:11;-0.76;93.31
76345;DHT22;65160;50.504;3.666;2023-03-11T05:23:36;-0.80;93.33
76345;DHT22;65160;50.504;3.666;2023-03-11T05:26:02;-0.83;93.41
76345;DHT22;65160;50.504;3.666;2023-03-11T05:28:27;-0.83;93.45
76345;DHT22;65160;50.504;3.666;2023-03-11T05:30:53;-0.86;93.48
76345;DHT22;65160;50.504;3.666;2023-03-11T05:33:18;-0.85;93.53
76345;DHT22;65160;50.504;3.666;2023-03-11T05:35:44;-0.88;93.58
76345;DHT22;65160;50.504;3.666;2023-03-11T05:38:09;-0.89;93.70
76345;DHT22;65160;50.504;3.666;2023-03-11T05:40:35;-0.90;93.78
76345;DHT22;65160;50.504;3.666;2023-03-11T05:43:00;-0.92;93.81
76345;DHT22;65160;50.504;3.666;2023-03-11T05:45:26;-0.95;93.77
76345;DHT22;65160;50.504;3.666;2023-03-11T05:47:51;-0.97;93.81
76345;DHT22;65160;50.504;3.666;2023-03-11T05:50:17;-0.95;93.82
76345;DHT22;65160;50.504;3.666;2023-03-11T05:52:43;-0.93;93.87
76345;DHT22;65160;50.504;3.666;2023-03-11T05:55:09;-0.97;93.87
76345;DHT22;65160;50.504;3.666;2023-03-11T05:57:37;-1.01;93.85
76345;DHT22;65160;50.504;3.666;2023-03-11T06:00:04;-1.01;93.91
76345;DHT22;65160;50.504;3.666;2023-03-11T06:02:34;-1.01;93.89
76345;DHT22;65160;50.504;3.666;2023-03-11T06:05:00;-1.04;93.93
76345;DHT22;65160;50.504;3.666;2023-03-11T06:07:25;-1.06;93.91
76345;DHT22;65160;50.504;3.666;2023-03-11T06:09:51;-1.03;93.93
76345;DHT22;65160;50.504;3.666;2023-03-11T06:12:16;-1.03;93.88
76345;DHT22;65160;50.504;3.666;2023-03-11T06:14:42;-1.08;93.94
76345;DHT22;65160;50.504;3.666;2023-03-11T06:17:07;-1.06;93.93
76345;DHT22;65160;50.504;3.666;2023-03-11T06:19:33;-1.03;93.89
76345;DHT22;65160;50.504;3.666;2023-03-11T06:21:58;-1.03;93.88
76345;DHT22;65160;50.504;3.666;2023-03-11T06:24:24;-1.03;93.85
76345;DHT22;65160;50.504;3.666;2023-03-11T06:26:51;-1.00;93.89
76345;DHT22;65160;50.504;3.666;2023-03-11T06:29:16;-0.97;93.90
76345;DHT22;65160;50.504;3.666;2023-03-11T06:31:42;-0.96;93.96
76345;DHT22;65160;50.504;3.666;2023-03-11T06:34:08;-0.89;93.93
76345;DHT22;65160;50.504;3.666;2023-03-11T06:36:35;-0.89;93.85
76345;DHT22;65160;50.504;3.666;2023-03-11T06:39:00;-0.89;93.78
76345;DHT22;65160;50.504;3.666;2023-03-11T06:41:26;-0.86;93.73
76345;DHT22;65160;50.504;3.666;2023-03-11T06:43:51;-0.82;93.72
76345;DHT22;65160;50.504;3.666;2023-03-11T06:46:19;-0.73;93.76
76345;DHT22;65160;50.504;3.666;2023-03-11T06:48:46;-0.66;93.77
76345;DHT22;65160;50.504;3.666;2023-03-11T06:51:12;-0.59;93.74
76345;DHT22;65160;50.504;3.666;2023-03-11T06:53:38;-0.51;93.68
76345;DHT22;65160;50.504;3.666;2023-03-11T06:56:09;-0.47;93.56
76345;DHT22;65160;50.504;3.666;2023-03-11T06:58:36;-0.41;93.48
76345;DHT22;65160;50.504;3.666;2023-03-11T07:01:06;-0.31;93.37
76345;DHT22;65160;50.504;3.666;2023-03-11T07:03:32;-0.24;93.25
76345;DHT22;65160;50.504;3.666;2023-03-11T07:05:57;-0.15;93.10
76345;DHT22;65160;50.504;3.666;2023-03-11T07:08:24;-0.06;92.94
76345;DHT22;65160;50.504;3.666;2023-03-11T07:11:09;0.05;92.74
76345;DHT22;65160;50.504;3.666;2023-03-11T07:13:36;0.18;92.74
76345;DHT22;65160;50.504;3.666;2023-03-11T07:16:07;0.32;92.65
76345;DHT22;65160;50.504;3.666;2023-03-11T07:18:34;0.41;92.49
76345;DHT22;65160;50.504;3.666;2023-03-11T07:21:01;0.52;92.34
76345;DHT22;65160;50.504;3.666;2023-03-11T07:23:27;0.65;92.12
76345;DHT22;65160;50.504;3.666;2023-03-11T07:25:52;0.76;91.95
76345;DHT22;65160;50.504;3.666;2023-03-11T07:28:23;0.91;91.90
76345;DHT22;65160;50.504;3.666;2023-03-11T07:30:50;1.04;90.91
76345;DHT22;65160;50.504;3.666;2023-03-11T07:33:16;1.23;89.90
76345;DHT22;65160;50.504;3.666;2023-03-11T07:35:42;1.34;89.36
76345;DHT22;65160;50.504;3.666;2023-03-11T07:38:08;1.42;88.76
76345;DHT22;65160;50.504;3.666;2023-03-11T07:40:34;1.52;88.30
76345;DHT22;65160;50.504;3.666;2023-03-11T07:42:59;1.58;87.64
76345;DHT22;65160;50.504;3.666;2023-03-11T07:45:25;1.62;87.52
76345;DHT22;65160;50.504;3.666;2023-03-11T07:47:51;1.77;87.34
76345;DHT22;65160;50.504;3.666;2023-03-11T07:50:16;1.82;86.60
76345;DHT22;65160;50.504;3.666;2023-03-11T07:52:43;1.89;86.51
76345;DHT22;65160;50.504;3.666;2023-03-11T07:55:09;2.07;86.48
76345;DHT22;65160;50.504;3.666;2023-03-11T07:57:34;2.11;85.36
76345;DHT22;65160;50.504;3.666;2023-03-11T08:00:01;2.18;85.60
76345;DHT22;65160;50.504;3.666;2023-03-11T08:02:26;2.32;85.00
76345;DHT22;65160;50.504;3.666;2023-03-11T08:04:52;2.44;84.57
76345;DHT22;65160;50.504;3.666;2023-03-11T08:07:17;2.62;84.66
76345;DHT22;65160;50.504;3.666;2023-03-11T08:09:45;2.85;84.30
76345;DHT22;65160;50.504;3.666;2023-03-11T08:12:10;2.93;82.55
76345;DHT22;65160;50.504;3.666;2023-03-11T08:14:35;3.04;81.84
76345;DHT22;65160;50.504;3.666;2023-03-11T08:17:01;3.05;82.04
76345;DHT22;65160;50.504;3.666;2023-03-11T08:19:28;3.11;82.07
76345;DHT22;65160;50.504;3.666;2023-03-11T08:21:53;3.32;82.59
76345;DHT22;65160;50.504;3.666;2023-03-11T08:24:18;3.41;80.83
76345;DHT22;65160;50.504;3.666;2023-03-11T08:26:44;3.62;81.79
76345;DHT22;65160;50.504;3.666;2023-03-11T08:29:09;3.85;80.86
76345;DHT22;65160;50.504;3.666;2023-03-11T08:31:35;3.97;80.09
76345;DHT22;65160;50.504;3.666;2023-03-11T08:34:06;4.24;80.20
76345;DHT22;65160;50.504;3.666;2023-03-11T08:36:32;4.55;79.24
76345;DHT22;65160;50.504;3.666;2023-03-11T08:38:58;4.77;76.78
76345;DHT22;65160;50.504;3.666;2023-03-11T08:41:24;4.90;76.62
76345;DHT22;65160;50.504;3.666;2023-03-11T08:43:50;5.11;75.89
76345;DHT22;65160;50.504;3.666;2023-03-11T08:46:36;4.97;75.83
76345;DHT22;65160;50.504;3.666;2023-03-11T08:49:03;4.93;76.74
76345;DHT22;65160;50.504;3.666;2023-03-11T08:51:30;4.94;77.61
76345;DHT22;65160;50.504;3.666;2023-03-11T08:53:57;5.23;78.13
76345;DHT22;65160;50.504;3.666;2023-03-11T08:56:22;5.59;76.82
76345;DHT22;65160;50.504;3.666;2023-03-11T08:58:48;5.86;74.02
76345;DHT22;65160;50.504;3.666;2023-03-11T09:01:15;5.85;74.10
76345;DHT22;65160;50.504;3.666;2023-03-11T09:03:40;5.79;74.42
76345;DHT22;65160;50.504;3.666;2023-03-11T09:06:09;5.72;74.48
76345;DHT22;65160;50.504;3.666;2023-03-11T09:08:35;5.77;73.40
76345;DHT22;65160;50.504;3.666;2023-03-11T09:11:01;5.85;74.74
76345;DHT22;65160;50.504;3.666;2023-03-11T09:13:27;5.94;72.81
76345;DHT22;65160;50.504;3.666;2023-03-11T09:15:53;6.11;72.90
76345;DHT22;65160;50.504;3.666;2023-03-11T09:18:19;6.21;72.12
76345;DHT22;65160;50.504;3.666;2023-03-11T09:20:45;6.20;70.56
76345;DHT22;65160;50.504;3.666;2023-03-11T09:23:13;6.13;71.14
76345;DHT22;65160;50.504;3.666;2023-03-11T09:25:39;6.17;71.87
76345;DHT22;65160;50.504;3.666;2023-03-11T09:28:04;6.18;72.79
76345;DHT22;65160;50.504;3.666;2023-03-11T09:30:30;6.21;70.33
76345;DHT22;65160;50.504;3.666;2023-03-11T09:32:56;5.96;72.79
76345;DHT22;65160;50.504;3.666;2023-03-11T09:35:21;5.89;74.12
76345;DHT22;65160;50.504;3.666;2023-03-11T09:37:47;5.85;74.65
76345;DHT22;65160;50.504;3.666;2023-03-11T09:40:16;5.92;74.08
76345;DHT22;65160;50.504;3.666;2023-03-11T09:43:11;6.51;71.87
76345;DHT22;65160;50.504;3.666;2023-03-11T09:45:50;6.87;70.78
76345;DHT22;65160;50.504;3.666;2023-03-11T09:48:31;7.03;70.48
76345;DHT22;65160;50.504;3.666;2023-03-11T09:51:15;7.16;71.57
76345;DHT22;65160;50.504;3.666;2023-03-11T09:53:46;7.56;67.14
76345;DHT22;65160;50.504;3.666;2023-03-11T09:56:19;7.80;66.54
76345;DHT22;65160;50.504;3.666;2023-03-11T09:58:58;7.68;68.29
76345;DHT22;65160;50.504;3.666;2023-03-11T10:01:27;7.87;64.25
76345;DHT22;65160;50.504;3.666;2023-03-11T10:03:56;8.27;65.28
76345;DHT22;65160;50.504;3.666;2023-03-11T10:06:25;8.40;62.05
76345;DHT22;65160;50.504;3.666;2023-03-11T10:14:42;9.10;58.86
76345;DHT22;65160;50.504;3.666;2023-03-11T10:25:31;9.23;55.21
76345;DHT22;65160;50.504;3.666;2023-03-11T10:28:11;9.04;54.63
76345;DHT22;65160;50.504;3.666;2023-03-11T10:30:44;8.89;52.43
76345;DHT22;65160;50.504;3.666;2023-03-11T10:35:45;9.34;56.84
76345;DHT22;65160;50.504;3.666;2023-03-11T10:38:14;9.55;54.42
76345;DHT22;65160;50.504;3.666;2023-03-11T10:40:43;9.61;54.30
76345;DHT22;65160;50.504;3.666;2023-03-11T10:43:13;9.97;51.50
76345;DHT22;65160;50.504;3.666;2023-03-11T10:45:41;10.59;58.43
76345;DHT22;65160;50.504;3.666;2023-03-11T10:48:16;10.25;51.39
76345;DHT22;65160;50.504;3.666;2023-03-11T10:53:16;9.86;54.75
76345;DHT22;65160;50.504;3.666;2023-03-11T10:55:51;9.68;50.64
76345;DHT22;65160;50.504;3.666;2023-03-11T10:58:28;9.63;53.85
76345;DHT22;65160;50.504;3.666;2023-03-11T11:01:12;9.57;49.66
76345;DHT22;65160;50.504;3.666;2023-03-11T11:03:44;9.59;51.47
76345;DHT22;65160;50.504;3.666;2023-03-11T11:06:36;9.96;51.65
76345;DHT22;65160;50.504;3.666;2023-03-11T11:09:19;10.54;49.15
76345;DHT22;65160;50.504;3.666;2023-03-11T11:12:15;10.09;51.76
76345;DHT22;65160;50.504;3.666;2023-03-11T11:14:48;9.99;55.53
76345;DHT22;65160;50.504;3.666;2023-03-11T11:17:35;10.09;48.57
76345;DHT22;65160;50.504;3.666;2023-03-11T11:20:02;9.95;48.99
76345;DHT22;65160;50.504;3.666;2023-03-11T11:22:38;10.12;47.10
76345;DHT22;65160;50.504;3.666;2023-03-11T11:25:24;10.07;46.40
76345;DHT22;65160;50.504;3.666;2023-03-11T11:28:17;9.81;45.76
76345;DHT22;65160;50.504;3.666;2023-03-11T11:30:56;9.49;48.53
76345;DHT22;65160;50.504;3.666;2023-03-11T11:36:02;9.52;49.05
76345;DHT22;65160;50.504;3.666;2023-03-11T11:38:30;9.51;50.63
76345;DHT22;65160;50.504;3.666;2023-03-11T11:41:02;9.47;48.78
76345;DHT22;65160;50.504;3.666;2023-03-11T11:43:47;9.49;47.79
76345;DHT22;65160;50.504;3.666;2023-03-11T11:46:40;9.78;50.81
76345;DHT22;65160;50.504;3.666;2023-03-11T11:49:23;10.00;47.61
76345;DHT22;65160;50.504;3.666;2023-03-11T11:51:57;10.17;49.29
76345;DHT22;65160;50.504;3.666;2023-03-11T11:57:14;9.90;48.61
76345;DHT22;65160;50.504;3.666;2023-03-11T11:59:40;9.66;48.20
76345;DHT22;65160;50.504;3.666;2023-03-11T12:15:12;9.27;50.05
76345;DHT22;65160;50.504;3.666;2023-03-11T12:17:42;9.34;50.43
76345;DHT22;65160;50.504;3.666;2023-03-11T12:20:24;9.27;48.61
76345;DHT22;65160;50.504;3.666;2023-03-11T12:26:17;9.93;49.00
76345;DHT22;65160;50.504;3.666;2023-03-11T12:31:22;10.03;48.00
76345;DHT22;65160;50.504;3.666;2023-03-11T12:33:59;10.18;46.14
76345;DHT22;65160;50.504;3.666;2023-03-11T12:36:37;10.57;47.83
76345;DHT22;65160;50.504;3.666;2023-03-11T12:39:06;10.71;44.53
76345;DHT22;65160;50.504;3.666;2023-03-11T12:41:37;10.89;46.26
76345;DHT22;65160;50.504;3.666;2023-03-11T12:49:31;11.06;46.06
76345;DHT22;65160;50.504;3.666;2023-03-11T13:02:55;10.51;44.73
76345;DHT22;65160;50.504;3.666;2023-03-11T13:08:30;10.44;52.44
76345;DHT22;65160;50.504;3.666;2023-03-11T13:10:58;11.19;48.50
76345;DHT22;65160;50.504;3.666;2023-03-11T13:15:50;11.81;42.72
76345;DHT22;65160;50.504;3.666;2023-03-11T13:18:23;12.12;43.22
76345;DHT22;65160;50.504;3.666;2023-03-11T13:20:54;12.71;45.25
76345;DHT22;65160;50.504;3.666;2023-03-11T13:26:28;13.50;43.06
76345;DHT22;65160;50.504;3.666;2023-03-11T13:32:35;13.84;42.46
76345;DHT22;65160;50.504;3.666;2023-03-11T13:40:43;14.02;38.06
76345;DHT22;65160;50.504;3.666;2023-03-11T13:43:16;14.30;36.05
76345;DHT22;65160;50.504;3.666;2023-03-11T13:45:57;14.64;37.03
76345;DHT22;65160;50.504;3.666;2023-03-11T13:48:30;14.74;40.12
76345;DHT22;65160;50.504;3.666;2023-03-11T13:53:33;15.02;38.85
76345;DHT22;65160;50.504;3.666;2023-03-11T13:56:01;15.84;35.99
76345;DHT22;65160;50.504;3.666;2023-03-11T13:58:27;16.48;36.46
76345;DHT22;65160;50.504;3.666;2023-03-11T14:01:00;16.48;34.73
76345;DHT22;65160;50.504;3.666;2023-03-11T14:03:40;13.63;36.43
76345;DHT22;65160;50.504;3.666;2023-03-11T14:06:10;12.60;43.57
76345;DHT22;65160;50.504;3.666;2023-03-11T14:08:37;13.84;37.82
76345;DHT22;65160;50.504;3.666;2023-03-11T14:13:46;14.87;35.59
76345;DHT22;65160;50.504;3.666;2023-03-11T14:16:29;15.23;33.86
76345;DHT22;65160;50.504;3.666;2023-03-11T14:19:03;15.76;35.34
76345;DHT22;65160;50.504;3.666;2023-03-11T14:21:29;16.71;36.65
76345;DHT22;65160;50.504;3.666;2023-03-11T14:23:58;16.59;30.78
76345;DHT22;65160;50.504;3.666;2023-03-11T14:26:33;17.15;33.93
76345;DHT22;65160;50.504;3.666;2023-03-11T14:29:08;17.29;32.60
76345;DHT22;65160;50.504;3.666;2023-03-11T14:31:38;15.31;35.81
76345;DHT22;65160;50.504;3.666;2023-03-11T14:36:55;13.63;40.53
76345;DHT22;65160;50.504;3.666;2023-03-11T14:39:28;14.59;38.40
76345;DHT22;65160;50.504;3.666;2023-03-11T14:44:37;13.58;39.15
76345;DHT22;65160;50.504;3.666;2023-03-11T14:47:20;14.04;38.14
76345;DHT22;65160;50.504;3.666;2023-03-11T14:49:49;14.81;36.62
76345;DHT22;65160;50.504;3.666;2023-03-11T14:52:20;13.85;39.66
76345;DHT22;65160;50.504;3.666;2023-03-11T14:54:47;13.89;40.76
76345;DHT22;65160;50.504;3.666;2023-03-11T14:57:25;13.29;39.60
76345;DHT22;65160;50.504;3.666;2023-03-11T14:59:54;14.51;39.79
76345;DHT22;65160;50.504;3.666;2023-03-11T15:02:41;15.35;35.71
76345;DHT22;65160;50.504;3.666;2023-03-11T15:05:18;15.22;38.89
76345;DHT22;65160;50.504;3.666;2023-03-11T15:07:47;15.67;40.15
76345;DHT22;65160;50.504;3.666;2023-03-11T15:10:14;15.87;34.37
76345;DHT22;65160;50.504;3.666;2023-03-11T15:12:41;16.33;35.32
76345;DHT22;65160;50.504;3.666;2023-03-11T15:17:57;16.32;35.76
76345;DHT22;65160;50.504;3.666;2023-03-11T15:20:34;15.77;33.94
76345;DHT22;65160;50.504;3.666;2023-03-11T15:23:02;15.63;36.67
76345;DHT22;65160;50.504;3.666;2023-03-11T15:25:32;16.05;36.25
76345;DHT22;65160;50.504;3.666;2023-03-11T15:28:12;16.25;33.71
76345;DHT22;65160;50.504;3.666;2023-03-11T15:30:38;16.51;34.37
76345;DHT22;65160;50.504;3.666;2023-03-11T15:33:20;16.07;35.49
76345;DHT22;65160;50.504;3.666;2023-03-11T15:35:47;15.88;35.86
76345;DHT22;65160;50.504;3.666;2023-03-11T15:38:24;15.28;37.13
76345;DHT22;65160;50.504;3.666;2023-03-11T15:40:54;14.26;37.66
76345;DHT22;65160;50.504;3.666;2023-03-11T15:43:25;14.71;39.43
76345;DHT22;65160;50.504;3.666;2023-03-11T15:45:52;14.46;36.66
76345;DHT22;65160;50.504;3.666;2023-03-11T15:48:19;14.70;38.44
76345;DHT22;65160;50.504;3.666;2023-03-11T15:50:56;15.23;40.26
76345;DHT22;65160;50.504;3.666;2023-03-11T15:53:24;15.67;36.56
76345;DHT22;65160;50.504;3.666;2023-03-11T15:55:51;14.53;34.12
76345;DHT22;65160;50.504;3.666;2023-03-11T15:58:18;14.33;39.77
76345;DHT22;65160;50.504;3.666;2023-03-11T16:00:55;15.12;36.47
76345;DHT22;65160;50.504;3.666;2023-03-11T16:03:22;15.19;36.20
76345;DHT22;65160;50.504;3.666;2023-03-11T16:05:47;15.12;35.79
76345;DHT22;65160;50.504;3.666;2023-03-11T16:08:13;14.95;35.57
76345;DHT22;65160;50.504;3.666;2023-03-11T16:10:39;15.22;37.33
76345;DHT22;65160;50.504;3.666;2023-03-11T16:13:05;15.84;33.61
76345;DHT22;65160;50.504;3.666;2023-03-11T16:15:35;15.67;35.10
76345;DHT22;65160;50.504;3.666;2023-03-11T16:18:04;15.96;35.04
76345;DHT22;65160;50.504;3.666;2023-03-11T16:20:40;16.18;35.28
76345;DHT22;65160;50.504;3.666;2023-03-11T16:23:06;16.53;33.13
76345;DHT22;65160;50.504;3.666;2023-03-11T16:25:37;16.55;32.29
76345;DHT22;65160;50.504;3.666;2023-03-11T16:28:03;16.56;33.45
76345;DHT22;65160;50.504;3.666;2023-03-11T16:30:30;15.94;36.61
76345;DHT22;65160;50.504;3.666;2023-03-11T16:32:56;15.06;38.16
76345;DHT22;65160;50.504;3.666;2023-03-11T16:35:22;13.98;39.60
76345;DHT22;65160;50.504;3.666;2023-03-11T16:37:47;13.10;40.10
76345;DHT22;65160;50.504;3.666;2023-03-11T16:40:17;12.53;44.86
76345;DHT22;65160;50.504;3.666;2023-03-11T16:42:42;12.13;45.27
76345;DHT22;65160;50.504;3.666;2023-03-11T16:45:10;11.64;42.84
76345;DHT22;65160;50.504;3.666;2023-03-11T16:47:36;11.41;45.21
76345;DHT22;65160;50.504;3.666;2023-03-11T16:50:02;11.12;44.34
76345;DHT22;65160;50.504;3.666;2023-03-11T16:52:28;10.86;45.96
76345;DHT22;65160;50.504;3.666;2023-03-11T16:54:54;10.75;46.09
76345;DHT22;65160;50.504;3.666;2023-03-11T16:57:19;10.48;48.33
76345;DHT22;65160;50.504;3.666;2023-03-11T16:59:45;10.24;48.27
76345;DHT22;65160;50.504;3.666;2023-03-11T17:02:11;10.06;48.19
76345;DHT22;65160;50.504;3.666;2023-03-11T17:04:37;9.93;48.52
76345;DHT22;65160;50.504;3.666;2023-03-11T17:07:04;9.82;51.08
76345;DHT22;65160;50.504;3.666;2023-03-11T17:09:30;9.68;49.48
76345;DHT22;65160;50.504;3.666;2023-03-11T17:11:56;9.54;46.24
76345;DHT22;65160;50.504;3.666;2023-03-11T17:14:22;9.42;48.64
76345;DHT22;65160;50.504;3.666;2023-03-11T17:16:48;9.40;47.43
76345;DHT22;65160;50.504;3.666;2023-03-11T17:19:14;9.30;49.04
76345;DHT22;65160;50.504;3.666;2023-03-11T17:21:40;9.19;49.41
76345;DHT22;65160;50.504;3.666;2023-03-11T17:24:06;9.23;50.83
76345;DHT22;65160;50.504;3.666;2023-03-11T17:26:31;9.06;50.80